Slaton, TX (79364)

2:10 PM CST on December 21, 2014 (GMT -0600)
Putty | Change Station
CLOSE
Current Station
Personal Weather Station
Location: Lubbock, TX
Elevation: 3196 ft
Nearby Weather Stations

Elev 3196 ft 33.49 °N, 101.83 °W | Updated 2 seconds ago

Partly Cloudy
Partly Cloudy
64.6 °F
Feels Like 64.6 °F
N
10.5
Wind Variable Wind from West
Gusts 26.0 mph

Today
High -- | Low -- °F
--% Chance of Precip.
Yesterday
High -- | Low -- °F
Precip. -- in
7:47 AM 5:43 PM
Waning Crescent, 0% visible
Pressure 29.65 in
Visibility 10.0 miles
Clouds Few 20000 ft
Few 26000 ft
Dew Point 30 °F
Humidity 27%
Rainfall 0.00 in
Snow Depth Not available.
UV 3 out of 12
Pollen 7.10 out of 12
Air Quality Not available.
Flu Activity Not available.
METAR KLBB 211953Z 26025G32KT 10SM FEW200 FEW260 18/M04 A2972 RMK AO2 PK WND 26032/1948 SLP041 OCNL PTCHY BLDU ALQDS T01831039

More Conditions Fewer Conditions

Pressure 29.65 in
Visibility 10.0 miles
Clouds Few 20000 ft
Few 26000 ft
Dew Point 30 °F
Humidity 27%
Rainfall 0.00 in
Snow Depth Not available.
UV 3 out of 12
Pollen 7.10 out of 12
Air Quality Not available.
Flu Activity Not available.
METAR KLBB 211953Z 26025G32KT 10SM FEW200 FEW260 18/M04 A2972 RMK AO2 PK WND 26032/1948 SLP041 OCNL PTCHY BLDU ALQDS T01831039

More Conditions Fewer Conditions

10-Day Weather Forecast

Almanac

Astronomy

Dec. 21, 2014 Rise Set
Actual Time
Civil Twilight
Nautical Twilight
Astronomical Twilight
Moon
Length of Visible Light
Length of Day
Tomorrow will be .
, % of the Moon is Illuminated

Today's Extremes

State Highs State Lows

Community

WunderPhotos

Upload Photos

1,779,469 photos uploaded!

WunderBlogs® & News

Nearby

Air Quality

  Air Quality AQ Index Pollutant
Not available.

Snow Depth

Station Depth Elevation

Earthquake Activity

City Distance Mag. Time & Date
Minimum magnitude displayed is 2.5.

Coastal Water Temperatures

Place Temperature

Nearby Weather Stations